sensor_id;sensor_type;location;lat;lon;timestamp;temperature;humidity
69901;DHT22;57183;50.930;5.406;2023-06-01T00:00:01;17.90;99.90
69901;DHT22;57183;50.930;5.406;2023-06-01T00:02:27;17.70;99.90
69901;DHT22;57183;50.930;5.406;2023-06-01T00:04:53;17.70;99.90
69901;DHT22;57183;50.930;5.406;2023-06-01T00:07:19;17.80;99.90
69901;DHT22;57183;50.930;5.406;2023-06-01T00:09:46;17.80;99.90
69901;DHT22;57183;50.930;5.406;2023-06-01T00:12:12;17.80;99.90
69901;DHT22;57183;50.930;5.406;2023-06-01T00:14:37;17.90;99.90
69901;DHT22;57183;50.930;5.406;2023-06-01T00:17:03;17.90;99.90
69901;DHT22;57183;50.930;5.406;2023-06-01T00:19:31;17.80;99.90
69901;DHT22;57183;50.930;5.406;2023-06-01T00:21:57;17.80;99.90
69901;DHT22;57183;50.930;5.406;2023-06-01T00:24:23;17.80;99.90
69901;DHT22;57183;50.930;5.406;2023-06-01T00:26:49;17.70;99.90
69901;DHT22;57183;50.930;5.406;2023-06-01T00:29:15;17.40;99.90
69901;DHT22;57183;50.930;5.406;2023-06-01T00:31:41;17.40;99.90
69901;DHT22;57183;50.930;5.406;2023-06-01T00:34:06;17.40;99.90
69901;DHT22;57183;50.930;5.406;2023-06-01T00:36:33;17.30;99.90
69901;DHT22;57183;50.930;5.406;2023-06-01T00:38:58;17.30;99.90
69901;DHT22;57183;50.930;5.406;2023-06-01T00:41:28;17.30;99.90
69901;DHT22;57183;50.930;5.406;2023-06-01T00:43:54;17.30;99.90
69901;DHT22;57183;50.930;5.406;2023-06-01T00:46:20;17.10;99.90
69901;DHT22;57183;50.930;5.406;2023-06-01T00:48:46;17.00;99.90
69901;DHT22;57183;50.930;5.406;2023-06-01T00:51:12;16.80;99.90
69901;DHT22;57183;50.930;5.406;2023-06-01T00:53:40;16.90;99.90
69901;DHT22;57183;50.930;5.406;2023-06-01T00:56:07;16.80;99.90
69901;DHT22;57183;50.930;5.406;2023-06-01T00:58:33;16.80;99.90
69901;DHT22;57183;50.930;5.406;2023-06-01T01:00:58;16.80;99.90
69901;DHT22;57183;50.930;5.406;2023-06-01T01:03:27;16.70;99.90
69901;DHT22;57183;50.930;5.406;2023-06-01T01:11:46;16.70;99.90
69901;DHT22;57183;50.930;5.406;2023-06-01T01:14:23;16.70;99.90
69901;DHT22;57183;50.930;5.406;2023-06-01T01:27:23;16.10;99.90
69901;DHT22;57183;50.930;5.406;2023-06-01T01:29:57;16.10;99.90
69901;DHT22;57183;50.930;5.406;2023-06-01T01:32:25;16.00;99.90
69901;DHT22;57183;50.930;5.406;2023-06-01T01:34:52;16.00;99.90
69901;DHT22;57183;50.930;5.406;2023-06-01T01:37:21;16.10;99.90
69901;DHT22;57183;50.930;5.406;2023-06-01T01:39:47;16.20;99.90
69901;DHT22;57183;50.930;5.406;2023-06-01T01:42:13;16.00;99.90
69901;DHT22;57183;50.930;5.406;2023-06-01T01:44:38;15.80;99.90
69901;DHT22;57183;50.930;5.406;2023-06-01T01:47:27;15.70;99.90
69901;DHT22;57183;50.930;5.406;2023-06-01T01:50:01;15.60;99.90
69901;DHT22;57183;50.930;5.406;2023-06-01T01:52:38;15.60;99.90
69901;DHT22;57183;50.930;5.406;2023-06-01T01:55:07;15.60;99.90
69901;DHT22;57183;50.930;5.406;2023-06-01T01:57:34;15.60;99.90
69901;DHT22;57183;50.930;5.406;2023-06-01T02:00:01;15.70;99.90
69901;DHT22;57183;50.930;5.406;2023-06-01T02:02:28;15.70;99.90
69901;DHT22;57183;50.930;5.406;2023-06-01T02:04:54;15.60;99.90
69901;DHT22;57183;50.930;5.406;2023-06-01T02:07:19;15.50;99.90
69901;DHT22;57183;50.930;5.406;2023-06-01T02:09:45;15.50;99.90
69901;DHT22;57183;50.930;5.406;2023-06-01T02:12:11;15.50;99.90
69901;DHT22;57183;50.930;5.406;2023-06-01T02:14:36;15.40;99.90
69901;DHT22;57183;50.930;5.406;2023-06-01T02:17:02;15.40;99.90
69901;DHT22;57183;50.930;5.406;2023-06-01T02:19:28;15.30;99.90
69901;DHT22;57183;50.930;5.406;2023-06-01T02:21:54;15.20;99.90
69901;DHT22;57183;50.930;5.406;2023-06-01T02:24:20;15.20;99.90
69901;DHT22;57183;50.930;5.406;2023-06-01T02:26:46;15.30;99.90
69901;DHT22;57183;50.930;5.406;2023-06-01T02:29:14;15.30;99.90
69901;DHT22;57183;50.930;5.406;2023-06-01T02:31:40;15.30;99.90
69901;DHT22;57183;50.930;5.406;2023-06-01T02:34:06;15.20;99.90
69901;DHT22;57183;50.930;5.406;2023-06-01T02:36:32;15.20;99.90
69901;DHT22;57183;50.930;5.406;2023-06-01T02:38:58;15.00;99.90
69901;DHT22;57183;50.930;5.406;2023-06-01T02:41:24;14.90;99.90
69901;DHT22;57183;50.930;5.406;2023-06-01T02:43:50;14.80;99.90
69901;DHT22;57183;50.930;5.406;2023-06-01T02:46:17;14.80;99.90
69901;DHT22;57183;50.930;5.406;2023-06-01T02:48:43;14.80;99.90
69901;DHT22;57183;50.930;5.406;2023-06-01T02:51:09;14.80;99.90
69901;DHT22;57183;50.930;5.406;2023-06-01T02:53:35;14.80;99.90
69901;DHT22;57183;50.930;5.406;2023-06-01T02:56:00;14.80;99.90
69901;DHT22;57183;50.930;5.406;2023-06-01T02:58:26;14.80;99.90
69901;DHT22;57183;50.930;5.406;2023-06-01T03:00:55;14.70;99.90
69901;DHT22;57183;50.930;5.406;2023-06-01T03:03:26;14.60;99.90
69901;DHT22;57183;50.930;5.406;2023-06-01T03:05:52;14.60;99.90
69901;DHT22;57183;50.930;5.406;2023-06-01T03:08:19;14.60;99.90
69901;DHT22;57183;50.930;5.406;2023-06-01T03:10:45;14.50;99.90
69901;DHT22;57183;50.930;5.406;2023-06-01T03:13:11;14.40;99.90
69901;DHT22;57183;50.930;5.406;2023-06-01T03:15:36;14.30;99.90
69901;DHT22;57183;50.930;5.406;2023-06-01T03:18:05;14.30;99.90
69901;DHT22;57183;50.930;5.406;2023-06-01T03:20:39;14.30;99.90
69901;DHT22;57183;50.930;5.406;2023-06-01T03:23:05;14.30;99.90
69901;DHT22;57183;50.930;5.406;2023-06-01T03:25:31;14.10;99.90
69901;DHT22;57183;50.930;5.406;2023-06-01T03:27:58;14.10;99.90
69901;DHT22;57183;50.930;5.406;2023-06-01T03:30:24;14.10;99.90
69901;DHT22;57183;50.930;5.406;2023-06-01T03:32:51;14.10;99.90
69901;DHT22;57183;50.930;5.406;2023-06-01T03:35:16;13.90;99.90
69901;DHT22;57183;50.930;5.406;2023-06-01T03:37:43;14.00;99.90
69901;DHT22;57183;50.930;5.406;2023-06-01T03:40:09;14.00;99.90
69901;DHT22;57183;50.930;5.406;2023-06-01T03:42:41;13.90;99.90
69901;DHT22;57183;50.930;5.406;2023-06-01T03:45:07;13.80;99.90
69901;DHT22;57183;50.930;5.406;2023-06-01T03:47:33;13.90;99.90
69901;DHT22;57183;50.930;5.406;2023-06-01T03:50:00;13.90;99.90
69901;DHT22;57183;50.930;5.406;2023-06-01T03:52:29;13.80;99.90
69901;DHT22;57183;50.930;5.406;2023-06-01T03:54:56;14.00;99.90
69901;DHT22;57183;50.930;5.406;2023-06-01T03:57:22;14.00;99.90
69901;DHT22;57183;50.930;5.406;2023-06-01T03:59:48;13.80;99.90
69901;DHT22;57183;50.930;5.406;2023-06-01T04:02:14;13.90;99.90
69901;DHT22;57183;50.930;5.406;2023-06-01T04:04:40;13.80;99.90
69901;DHT22;57183;50.930;5.406;2023-06-01T04:07:11;13.70;99.90
69901;DHT22;57183;50.930;5.406;2023-06-01T04:09:40;13.70;99.90
69901;DHT22;57183;50.930;5.406;2023-06-01T04:12:06;13.60;99.90
69901;DHT22;57183;50.930;5.406;2023-06-01T04:14:32;13.70;99.90
69901;DHT22;57183;50.930;5.406;2023-06-01T04:16:58;13.60;99.90
69901;DHT22;57183;50.930;5.406;2023-06-01T04:19:24;13.60;99.90
69901;DHT22;57183;50.930;5.406;2023-06-01T04:21:50;13.80;99.90
69901;DHT22;57183;50.930;5.406;2023-06-01T04:24:15;13.80;99.90
69901;DHT22;57183;50.930;5.406;2023-06-01T04:26:41;13.80;99.90
69901;DHT22;57183;50.930;5.406;2023-06-01T04:29:07;13.80;99.90
69901;DHT22;57183;50.930;5.406;2023-06-01T04:31:34;13.90;99.90
69901;DHT22;57183;50.930;5.406;2023-06-01T04:34:00;13.80;99.90
69901;DHT22;57183;50.930;5.406;2023-06-01T04:36:28;13.80;99.90
69901;DHT22;57183;50.930;5.406;2023-06-01T04:38:54;13.80;99.90
69901;DHT22;57183;50.930;5.406;2023-06-01T04:41:21;13.70;99.90
69901;DHT22;57183;50.930;5.406;2023-06-01T04:43:53;13.70;99.90
69901;DHT22;57183;50.930;5.406;2023-06-01T04:46:20;13.70;99.90
69901;DHT22;57183;50.930;5.406;2023-06-01T04:48:48;13.80;99.90
69901;DHT22;57183;50.930;5.406;2023-06-01T04:51:14;13.80;99.90
69901;DHT22;57183;50.930;5.406;2023-06-01T04:53:49;13.90;99.90
69901;DHT22;57183;50.930;5.406;2023-06-01T04:56:21;14.10;99.90
69901;DHT22;57183;50.930;5.406;2023-06-01T04:58:50;14.20;99.90
69901;DHT22;57183;50.930;5.406;2023-06-01T05:01:17;14.20;99.90
69901;DHT22;57183;50.930;5.406;2023-06-01T05:03:45;13.80;99.90
69901;DHT22;57183;50.930;5.406;2023-06-01T05:06:12;13.80;99.90
69901;DHT22;57183;50.930;5.406;2023-06-01T05:08:39;14.00;99.90
69901;DHT22;57183;50.930;5.406;2023-06-01T05:11:05;14.10;99.90
69901;DHT22;57183;50.930;5.406;2023-06-01T05:13:33;14.10;99.90
69901;DHT22;57183;50.930;5.406;2023-06-01T05:15:59;14.20;99.90
69901;DHT22;57183;50.930;5.406;2023-06-01T05:18:24;14.30;99.90
69901;DHT22;57183;50.930;5.406;2023-06-01T05:20:50;14.50;99.90
69901;DHT22;57183;50.930;5.406;2023-06-01T05:23:16;14.50;99.90
69901;DHT22;57183;50.930;5.406;2023-06-01T05:25:42;14.50;99.90
69901;DHT22;57183;50.930;5.406;2023-06-01T05:28:08;14.50;99.90
69901;DHT22;57183;50.930;5.406;2023-06-01T05:30:35;14.70;99.90
69901;DHT22;57183;50.930;5.406;2023-06-01T05:33:00;14.50;99.90
69901;DHT22;57183;50.930;5.406;2023-06-01T05:35:26;14.60;99.90
69901;DHT22;57183;50.930;5.406;2023-06-01T05:37:52;14.60;99.90
69901;DHT22;57183;50.930;5.406;2023-06-01T05:40:18;14.60;99.90
69901;DHT22;57183;50.930;5.406;2023-06-01T05:42:43;14.60;99.90
69901;DHT22;57183;50.930;5.406;2023-06-01T05:45:09;14.40;99.90
69901;DHT22;57183;50.930;5.406;2023-06-01T05:47:35;14.50;99.90
69901;DHT22;57183;50.930;5.406;2023-06-01T05:50:01;14.80;99.90
69901;DHT22;57183;50.930;5.406;2023-06-01T05:52:27;14.80;99.90
69901;DHT22;57183;50.930;5.406;2023-06-01T05:54:52;14.60;99.90
69901;DHT22;57183;50.930;5.406;2023-06-01T05:57:19;14.70;99.90
69901;DHT22;57183;50.930;5.406;2023-06-01T05:59:46;14.60;99.90
69901;DHT22;57183;50.930;5.406;2023-06-01T06:02:13;14.90;99.90
69901;DHT22;57183;50.930;5.406;2023-06-01T06:04:39;15.30;99.90
69901;DHT22;57183;50.930;5.406;2023-06-01T06:07:05;15.60;99.90
69901;DHT22;57183;50.930;5.406;2023-06-01T06:09:31;15.50;99.90
69901;DHT22;57183;50.930;5.406;2023-06-01T06:11:57;15.50;99.90
69901;DHT22;57183;50.930;5.406;2023-06-01T06:14:23;15.50;99.90
69901;DHT22;57183;50.930;5.406;2023-06-01T06:16:49;15.60;99.90
69901;DHT22;57183;50.930;5.406;2023-06-01T06:19:15;15.80;99.90
69901;DHT22;57183;50.930;5.406;2023-06-01T06:21:42;15.70;99.90
69901;DHT22;57183;50.930;5.406;2023-06-01T06:24:08;15.50;99.90
69901;DHT22;57183;50.930;5.406;2023-06-01T06:26:34;15.50;99.90
69901;DHT22;57183;50.930;5.406;2023-06-01T06:28:59;15.70;99.90
69901;DHT22;57183;50.930;5.406;2023-06-01T06:31:25;15.70;99.90
69901;DHT22;57183;50.930;5.406;2023-06-01T06:33:51;15.70;99.90
69901;DHT22;57183;50.930;5.406;2023-06-01T06:36:17;15.80;99.90
69901;DHT22;57183;50.930;5.406;2023-06-01T06:38:44;15.40;99.90
69901;DHT22;57183;50.930;5.406;2023-06-01T06:41:10;15.70;99.90
69901;DHT22;57183;50.930;5.406;2023-06-01T06:43:35;15.90;99.90
69901;DHT22;57183;50.930;5.406;2023-06-01T06:46:02;16.00;99.90
69901;DHT22;57183;50.930;5.406;2023-06-01T06:48:28;15.80;99.90
69901;DHT22;57183;50.930;5.406;2023-06-01T06:50:54;16.00;99.90
69901;DHT22;57183;50.930;5.406;2023-06-01T06:53:20;16.30;99.90
69901;DHT22;57183;50.930;5.406;2023-06-01T06:55:46;16.30;99.90
69901;DHT22;57183;50.930;5.406;2023-06-01T06:58:12;16.70;99.90
69901;DHT22;57183;50.930;5.406;2023-06-01T07:00:39;16.80;99.90
69901;DHT22;57183;50.930;5.406;2023-06-01T07:03:05;16.80;99.90
69901;DHT22;57183;50.930;5.406;2023-06-01T07:05:31;17.30;99.90
69901;DHT22;57183;50.930;5.406;2023-06-01T07:07:57;17.00;99.90
69901;DHT22;57183;50.930;5.406;2023-06-01T07:10:23;16.80;99.90
69901;DHT22;57183;50.930;5.406;2023-06-01T07:12:49;16.70;99.90
69901;DHT22;57183;50.930;5.406;2023-06-01T07:15:14;16.50;99.90
69901;DHT22;57183;50.930;5.406;2023-06-01T07:17:41;16.30;99.90
69901;DHT22;57183;50.930;5.406;2023-06-01T07:20:08;16.10;99.90
69901;DHT22;57183;50.930;5.406;2023-06-01T07:22:37;16.10;99.90
69901;DHT22;57183;50.930;5.406;2023-06-01T07:25:03;16.30;99.90
69901;DHT22;57183;50.930;5.406;2023-06-01T07:27:30;16.30;99.90
69901;DHT22;57183;50.930;5.406;2023-06-01T07:29:57;16.70;99.90
69901;DHT22;57183;50.930;5.406;2023-06-01T07:32:23;17.00;99.90
69901;DHT22;57183;50.930;5.406;2023-06-01T07:34:50;17.40;99.90
69901;DHT22;57183;50.930;5.406;2023-06-01T07:37:16;17.40;99.90
69901;DHT22;57183;50.930;5.406;2023-06-01T07:39:47;17.50;99.90
69901;DHT22;57183;50.930;5.406;2023-06-01T07:42:13;17.50;99.90
69901;DHT22;57183;50.930;5.406;2023-06-01T07:44:40;17.30;99.90
69901;DHT22;57183;50.930;5.406;2023-06-01T07:47:06;17.10;99.90
69901;DHT22;57183;50.930;5.406;2023-06-01T07:49:31;17.00;99.90
69901;DHT22;57183;50.930;5.406;2023-06-01T07:52:00;16.80;99.90
69901;DHT22;57183;50.930;5.406;2023-06-01T07:54:26;17.00;99.90
69901;DHT22;57183;50.930;5.406;2023-06-01T07:56:52;17.10;99.90
69901;DHT22;57183;50.930;5.406;2023-06-01T07:59:19;17.20;99.90
69901;DHT22;57183;50.930;5.406;2023-06-01T08:01:48;17.10;99.90
69901;DHT22;57183;50.930;5.406;2023-06-01T08:04:14;17.20;99.90
69901;DHT22;57183;50.930;5.406;2023-06-01T08:06:39;17.30;99.90
69901;DHT22;57183;50.930;5.406;2023-06-01T08:09:06;17.40;99.90
69901;DHT22;57183;50.930;5.406;2023-06-01T08:11:32;17.40;99.90
69901;DHT22;57183;50.930;5.406;2023-06-01T08:13:59;17.20;99.90
69901;DHT22;57183;50.930;5.406;2023-06-01T08:16:29;17.50;99.90
69901;DHT22;57183;50.930;5.406;2023-06-01T08:18:55;17.60;99.90
69901;DHT22;57183;50.930;5.406;2023-06-01T08:21:25;17.80;99.90
69901;DHT22;57183;50.930;5.406;2023-06-01T08:23:52;17.70;99.90
69901;DHT22;57183;50.930;5.406;2023-06-01T08:26:20;17.80;99.90
69901;DHT22;57183;50.930;5.406;2023-06-01T08:28:46;17.90;99.90
69901;DHT22;57183;50.930;5.406;2023-06-01T08:31:19;17.90;99.90
69901;DHT22;57183;50.930;5.406;2023-06-01T08:33:45;18.00;99.90
69901;DHT22;57183;50.930;5.406;2023-06-01T08:36:11;18.00;99.90
69901;DHT22;57183;50.930;5.406;2023-06-01T08:38:37;18.10;99.90
69901;DHT22;57183;50.930;5.406;2023-06-01T08:41:35;18.20;99.90
69901;DHT22;57183;50.930;5.406;2023-06-01T08:44:05;18.20;99.90
69901;DHT22;57183;50.930;5.406;2023-06-01T08:46:33;18.20;99.90
69901;DHT22;57183;50.930;5.406;2023-06-01T08:49:02;18.20;99.90
69901;DHT22;57183;50.930;5.406;2023-06-01T08:51:32;18.40;99.90
69901;DHT22;57183;50.930;5.406;2023-06-01T08:54:00;18.50;99.90
69901;DHT22;57183;50.930;5.406;2023-06-01T08:56:28;18.70;99.90
69901;DHT22;57183;50.930;5.406;2023-06-01T08:58:54;18.80;99.90
69901;DHT22;57183;50.930;5.406;2023-06-01T09:01:20;18.90;99.90
69901;DHT22;57183;50.930;5.406;2023-06-01T09:03:49;19.00;99.90
69901;DHT22;57183;50.930;5.406;2023-06-01T09:06:16;19.00;99.90
69901;DHT22;57183;50.930;5.406;2023-06-01T09:08:42;19.10;99.90
69901;DHT22;57183;50.930;5.406;2023-06-01T09:11:08;19.10;99.90
69901;DHT22;57183;50.930;5.406;2023-06-01T09:13:38;19.10;99.90
69901;DHT22;57183;50.930;5.406;2023-06-01T09:16:05;19.30;99.90
69901;DHT22;57183;50.930;5.406;2023-06-01T09:18:31;19.30;99.90
69901;DHT22;57183;50.930;5.406;2023-06-01T09:21:13;19.40;99.90
69901;DHT22;57183;50.930;5.406;2023-06-01T09:23:39;19.50;99.90
69901;DHT22;57183;50.930;5.406;2023-06-01T09:26:08;19.70;99.90
69901;DHT22;57183;50.930;5.406;2023-06-01T09:28:56;19.90;99.90
69901;DHT22;57183;50.930;5.406;2023-06-01T09:34:02;19.90;99.90
69901;DHT22;57183;50.930;5.406;2023-06-01T09:36:28;19.90;99.90
69901;DHT22;57183;50.930;5.406;2023-06-01T09:39:06;20.00;99.90
69901;DHT22;57183;50.930;5.406;2023-06-01T09:42:04;19.80;99.90
69901;DHT22;57183;50.930;5.406;2023-06-01T09:44:34;19.80;99.90
69901;DHT22;57183;50.930;5.406;2023-06-01T09:47:04;19.60;99.90
69901;DHT22;57183;50.930;5.406;2023-06-01T09:49:35;19.70;99.90
69901;DHT22;57183;50.930;5.406;2023-06-01T09:54:32;20.20;99.90
69901;DHT22;57183;50.930;5.406;2023-06-01T09:57:00;20.40;99.60
69901;DHT22;57183;50.930;5.406;2023-06-01T09:59:27;20.40;98.50
69901;DHT22;57183;50.930;5.406;2023-06-01T10:01:58;20.60;98.00
69901;DHT22;57183;50.930;5.406;2023-06-01T10:04:26;20.50;97.70
69901;DHT22;57183;50.930;5.406;2023-06-01T10:06:54;20.60;98.80
69901;DHT22;57183;50.930;5.406;2023-06-01T10:09:21;20.80;98.50
69901;DHT22;57183;50.930;5.406;2023-06-01T10:11:49;20.90;97.70
69901;DHT22;57183;50.930;5.406;2023-06-01T10:14:16;21.00;97.60
69901;DHT22;57183;50.930;5.406;2023-06-01T10:16:42;21.00;96.60
69901;DHT22;57183;50.930;5.406;2023-06-01T10:19:09;21.00;96.70
69901;DHT22;57183;50.930;5.406;2023-06-01T10:21:36;21.10;96.60
69901;DHT22;57183;50.930;5.406;2023-06-01T10:24:03;21.20;97.10
69901;DHT22;57183;50.930;5.406;2023-06-01T10:26:30;21.30;96.50
69901;DHT22;57183;50.930;5.406;2023-06-01T10:29:00;21.30;94.70
69901;DHT22;57183;50.930;5.406;2023-06-01T10:31:40;21.20;95.30
69901;DHT22;57183;50.930;5.406;2023-06-01T10:34:08;21.20;95.40
69901;DHT22;57183;50.930;5.406;2023-06-01T10:39:36;21.10;94.70
69901;DHT22;57183;50.930;5.406;2023-06-01T10:47:06;21.20;94.70
69901;DHT22;57183;50.930;5.406;2023-06-01T10:52:29;21.10;93.80
69901;DHT22;57183;50.930;5.406;2023-06-01T10:57:44;21.20;94.70
69901;DHT22;57183;50.930;5.406;2023-06-01T11:00:24;21.50;94.70
69901;DHT22;57183;50.930;5.406;2023-06-01T11:08:05;21.60;92.30
69901;DHT22;57183;50.930;5.406;2023-06-01T11:13:15;21.60;92.50
69901;DHT22;57183;50.930;5.406;2023-06-01T11:18:45;21.70;92.90
69901;DHT22;57183;50.930;5.406;2023-06-01T11:21:38;21.80;93.00
69901;DHT22;57183;50.930;5.406;2023-06-01T11:24:11;21.80;92.80
69901;DHT22;57183;50.930;5.406;2023-06-01T11:26:39;22.00;93.70
69901;DHT22;57183;50.930;5.406;2023-06-01T11:29:15;22.10;94.20
69901;DHT22;57183;50.930;5.406;2023-06-01T11:31:42;22.00;92.30
69901;DHT22;57183;50.930;5.406;2023-06-01T11:34:10;21.90;93.10
69901;DHT22;57183;50.930;5.406;2023-06-01T11:36:37;21.90;92.30
69901;DHT22;57183;50.930;5.406;2023-06-01T11:39:03;22.00;93.10
69901;DHT22;57183;50.930;5.406;2023-06-01T11:41:33;22.20;93.20
69901;DHT22;57183;50.930;5.406;2023-06-01T11:43:59;22.20;90.90
69901;DHT22;57183;50.930;5.406;2023-06-01T11:46:25;22.00;91.40
69901;DHT22;57183;50.930;5.406;2023-06-01T11:49:02;22.20;91.50
69901;DHT22;57183;50.930;5.406;2023-06-01T11:51:37;22.10;91.50
69901;DHT22;57183;50.930;5.406;2023-06-01T11:54:05;22.30;92.50
69901;DHT22;57183;50.930;5.406;2023-06-01T11:56:32;22.40;92.20
69901;DHT22;57183;50.930;5.406;2023-06-01T11:59:03;22.40;91.40
69901;DHT22;57183;50.930;5.406;2023-06-01T12:01:45;22.40;90.50
69901;DHT22;57183;50.930;5.406;2023-06-01T12:04:19;22.40;91.00
69901;DHT22;57183;50.930;5.406;2023-06-01T12:06:45;22.40;90.50
69901;DHT22;57183;50.930;5.406;2023-06-01T12:09:15;22.40;90.50
69901;DHT22;57183;50.930;5.406;2023-06-01T12:11:42;22.40;86.90
69901;DHT22;57183;50.930;5.406;2023-06-01T12:14:12;22.50;87.40
69901;DHT22;57183;50.930;5.406;2023-06-01T12:17:06;22.50;89.00
69901;DHT22;57183;50.930;5.406;2023-06-01T12:19:31;22.60;87.10
69901;DHT22;57183;50.930;5.406;2023-06-01T12:21:58;22.70;87.60
69901;DHT22;57183;50.930;5.406;2023-06-01T12:24:33;22.60;89.70
69901;DHT22;57183;50.930;5.406;2023-06-01T12:27:03;22.70;89.60
69901;DHT22;57183;50.930;5.406;2023-06-01T12:29:42;22.80;90.20
69901;DHT22;57183;50.930;5.406;2023-06-01T12:32:10;22.90;89.30
69901;DHT22;57183;50.930;5.406;2023-06-01T12:34:37;23.10;89.70
69901;DHT22;57183;50.930;5.406;2023-06-01T12:37:19;23.20;87.50
69901;DHT22;57183;50.930;5.406;2023-06-01T12:39:52;23.20;89.80
69901;DHT22;57183;50.930;5.406;2023-06-01T12:42:19;23.30;90.40
69901;DHT22;57183;50.930;5.406;2023-06-01T12:44:52;23.20;90.00
69901;DHT22;57183;50.930;5.406;2023-06-01T12:47:18;23.10;90.20
69901;DHT22;57183;50.930;5.406;2023-06-01T12:50:05;23.30;90.10
69901;DHT22;57183;50.930;5.406;2023-06-01T12:52:31;23.30;89.60
69901;DHT22;57183;50.930;5.406;2023-06-01T12:54:57;23.30;90.80
69901;DHT22;57183;50.930;5.406;2023-06-01T12:57:22;23.40;90.10
69901;DHT22;57183;50.930;5.406;2023-06-01T12:59:48;23.40;89.60
69901;DHT22;57183;50.930;5.406;2023-06-01T13:02:14;23.30;88.20
69901;DHT22;57183;50.930;5.406;2023-06-01T13:04:40;23.20;88.90
69901;DHT22;57183;50.930;5.406;2023-06-01T13:07:06;23.20;88.40
69901;DHT22;57183;50.930;5.406;2023-06-01T13:09:31;23.20;88.60
69901;DHT22;57183;50.930;5.406;2023-06-01T13:11:57;23.30;89.80
69901;DHT22;57183;50.930;5.406;2023-06-01T13:14:23;23.40;88.40
69901;DHT22;57183;50.930;5.406;2023-06-01T13:16:49;23.50;85.60
69901;DHT22;57183;50.930;5.406;2023-06-01T13:19:15;23.60;83.30
69901;DHT22;57183;50.930;5.406;2023-06-01T13:21:40;23.60;83.90
69901;DHT22;57183;50.930;5.406;2023-06-01T13:24:06;23.80;83.80
69901;DHT22;57183;50.930;5.406;2023-06-01T13:26:33;23.60;80.10
69901;DHT22;57183;50.930;5.406;2023-06-01T13:28:58;23.40;81.80
69901;DHT22;57183;50.930;5.406;2023-06-01T13:31:24;23.10;82.50
69901;DHT22;57183;50.930;5.406;2023-06-01T13:33:50;23.30;84.00
69901;DHT22;57183;50.930;5.406;2023-06-01T13:36:15;23.60;83.80
69901;DHT22;57183;50.930;5.406;2023-06-01T13:38:41;23.90;83.50
69901;DHT22;57183;50.930;5.406;2023-06-01T13:41:07;24.10;84.60
69901;DHT22;57183;50.930;5.406;2023-06-01T13:43:32;24.20;78.50
69901;DHT22;57183;50.930;5.406;2023-06-01T13:45:58;24.30;81.20
69901;DHT22;57183;50.930;5.406;2023-06-01T13:48:24;24.90;75.80
69901;DHT22;57183;50.930;5.406;2023-06-01T13:50:50;26.40;73.80
69901;DHT22;57183;50.930;5.406;2023-06-01T13:53:17;28.60;68.60
69901;DHT22;57183;50.930;5.406;2023-06-01T13:55:43;29.60;64.70
69901;DHT22;57183;50.930;5.406;2023-06-01T13:58:08;30.20;62.80
69901;DHT22;57183;50.930;5.406;2023-06-01T14:00:34;31.40;60.70
69901;DHT22;57183;50.930;5.406;2023-06-01T14:03:00;31.80;56.90
69901;DHT22;57183;50.930;5.406;2023-06-01T14:05:26;32.30;55.40
69901;DHT22;57183;50.930;5.406;2023-06-01T14:07:51;32.30;53.70
69901;DHT22;57183;50.930;5.406;2023-06-01T14:10:17;31.50;55.00
69901;DHT22;57183;50.930;5.406;2023-06-01T14:12:42;31.50;54.40
69901;DHT22;57183;50.930;5.406;2023-06-01T14:15:08;32.00;56.00
69901;DHT22;57183;50.930;5.406;2023-06-01T14:17:34;32.10;54.00
69901;DHT22;57183;50.930;5.406;2023-06-01T14:20:00;31.70;54.60
69901;DHT22;57183;50.930;5.406;2023-06-01T14:22:25;31.40;54.90
69901;DHT22;57183;50.930;5.406;2023-06-01T14:24:51;31.30;56.10
69901;DHT22;57183;50.930;5.406;2023-06-01T14:27:17;30.70;55.30
69901;DHT22;57183;50.930;5.406;2023-06-01T14:29:42;30.90;55.30
69901;DHT22;57183;50.930;5.406;2023-06-01T14:32:08;31.00;55.60
69901;DHT22;57183;50.930;5.406;2023-06-01T14:34:34;31.20;54.70
69901;DHT22;57183;50.930;5.406;2023-06-01T14:36:59;32.50;56.10
69901;DHT22;57183;50.930;5.406;2023-06-01T14:39:25;32.00;52.50
69901;DHT22;57183;50.930;5.406;2023-06-01T14:41:51;30.80;55.00
69901;DHT22;57183;50.930;5.406;2023-06-01T14:44:17;31.40;55.30
69901;DHT22;57183;50.930;5.406;2023-06-01T14:46:42;32.20;53.30
69901;DHT22;57183;50.930;5.406;2023-06-01T14:49:08;32.50;52.50
69901;DHT22;57183;50.930;5.406;2023-06-01T14:51:34;32.80;52.80
69901;DHT22;57183;50.930;5.406;2023-06-01T14:54:00;33.00;51.70
69901;DHT22;57183;50.930;5.406;2023-06-01T14:56:26;32.90;51.20
69901;DHT22;57183;50.930;5.406;2023-06-01T14:58:52;32.10;52.10
69901;DHT22;57183;50.930;5.406;2023-06-01T15:01:18;32.00;53.60
69901;DHT22;57183;50.930;5.406;2023-06-01T15:03:43;32.30;51.90
69901;DHT22;57183;50.930;5.406;2023-06-01T15:06:09;31.50;52.50
69901;DHT22;57183;50.930;5.406;2023-06-01T15:08:35;31.30;53.40
69901;DHT22;57183;50.930;5.406;2023-06-01T15:11:00;31.20;53.40
69901;DHT22;57183;50.930;5.406;2023-06-01T15:13:26;31.00;53.40
69901;DHT22;57183;50.930;5.406;2023-06-01T15:15:52;31.60;54.00
69901;DHT22;57183;50.930;5.406;2023-06-01T15:18:18;31.90;52.60
69901;DHT22;57183;50.930;5.406;2023-06-01T15:20:43;32.50;52.20
69901;DHT22;57183;50.930;5.406;2023-06-01T15:23:09;32.80;51.00
69901;DHT22;57183;50.930;5.406;2023-06-01T15:25:35;32.10;51.10
69901;DHT22;57183;50.930;5.406;2023-06-01T15:28:00;31.40;52.70
69901;DHT22;57183;50.930;5.406;2023-06-01T15:30:26;31.60;54.60
69901;DHT22;57183;50.930;5.406;2023-06-01T15:32:56;31.90;53.10
69901;DHT22;57183;50.930;5.406;2023-06-01T15:35:22;32.60;51.20
69901;DHT22;57183;50.930;5.406;2023-06-01T15:37:47;32.30;50.60
69901;DHT22;57183;50.930;5.406;2023-06-01T15:40:14;31.90;51.90
69901;DHT22;57183;50.930;5.406;2023-06-01T15:42:40;32.50;51.90
69901;DHT22;57183;50.930;5.406;2023-06-01T15:45:06;32.80;50.80
69901;DHT22;57183;50.930;5.406;2023-06-01T15:47:32;33.20;50.20
69901;DHT22;57183;50.930;5.406;2023-06-01T15:49:58;32.40;49.00
69901;DHT22;57183;50.930;5.406;2023-06-01T15:52:24;32.30;49.90
69901;DHT22;57183;50.930;5.406;2023-06-01T15:54:50;32.70;51.30
69901;DHT22;57183;50.930;5.406;2023-06-01T15:57:15;33.20;49.90
69901;DHT22;57183;50.930;5.406;2023-06-01T15:59:41;32.90;49.70
69901;DHT22;57183;50.930;5.406;2023-06-01T16:02:07;33.00;49.90
69901;DHT22;57183;50.930;5.406;2023-06-01T16:04:32;32.90;49.70
69901;DHT22;57183;50.930;5.406;2023-06-01T16:06:58;33.60;49.80
69901;DHT22;57183;50.930;5.406;2023-06-01T16:09:24;34.20;46.70
69901;DHT22;57183;50.930;5.406;2023-06-01T16:11:49;33.00;48.60
69901;DHT22;57183;50.930;5.406;2023-06-01T16:14:15;32.50;48.50
69901;DHT22;57183;50.930;5.406;2023-06-01T16:16:41;32.00;49.20